createdAt,value
2019-06-01T00:02:56.376Z,2.70
2019-06-01T00:07:53.944Z,3.13
2019-06-01T00:12:55.400Z,2.50
2019-06-01T00:17:56.933Z,2.77
2019-06-01T00:22:58.993Z,2.10
2019-06-01T00:28:00.583Z,2.90
2019-06-01T00:33:02.428Z,2.13
2019-06-01T00:38:03.755Z,2.90
2019-06-01T00:43:05.079Z,2.77
2019-06-01T00:48:06.426Z,2.27
2019-06-01T00:53:07.754Z,4.37
2019-06-01T00:58:09.096Z,2.17
2019-06-01T01:03:11.136Z,2.67
2019-06-01T01:08:12.494Z,2.07
2019-06-01T01:13:17.699Z,1.97
2019-06-01T01:18:19.187Z,2.17
2019-06-01T01:23:20.536Z,2.23
2019-06-01T01:28:23.922Z,2.13
2019-06-01T01:33:23.312Z,2.40
2019-06-01T01:38:26.136Z,3.60
2019-06-01T01:43:27.455Z,2.00
2019-06-01T01:48:29.269Z,2.30
2019-06-01T01:53:30.605Z,3.60
2019-06-01T01:58:31.961Z,2.53
2019-06-01T02:03:33.287Z,2.50
2019-06-01T02:08:34.621Z,4.27
2019-06-01T02:13:35.920Z,4.13
2019-06-01T02:18:37.287Z,2.40
2019-06-01T02:23:38.681Z,2.83
2019-06-01T02:28:40.015Z,2.33
2019-06-01T02:33:41.371Z,2.30
2019-06-01T02:38:42.747Z,2.73
2019-06-01T02:43:44.103Z,2.13
2019-06-01T02:48:45.405Z,2.77
2019-06-01T02:53:46.877Z,2.13
2019-06-01T02:58:48.204Z,2.70
2019-06-01T03:03:49.579Z,2.47
2019-06-01T03:08:50.888Z,2.50
2019-06-01T03:13:52.215Z,2.20
2019-06-01T03:18:53.525Z,1.90
2019-06-01T03:23:54.839Z,2.63
2019-06-01T03:28:56.209Z,2.97
2019-06-01T03:33:57.577Z,2.40
2019-06-01T03:38:59.957Z,3.97
2019-06-01T03:44:02.416Z,2.20
2019-06-01T03:49:03.634Z,2.30
2019-06-01T03:54:05.030Z,1.90
2019-06-01T03:59:05.354Z,3.83
2019-06-01T04:04:07.130Z,3.67
2019-06-01T04:09:08.085Z,1.50
2019-06-01T04:14:09.878Z,2.80
2019-06-01T04:19:12.196Z,3.57
2019-06-01T04:24:12.657Z,3.30
2019-06-01T04:29:14.024Z,2.20
2019-06-01T04:34:15.441Z,3.30
2019-06-01T04:39:17.491Z,2.13
2019-06-01T04:44:18.816Z,1.70
2019-06-01T04:49:20.132Z,1.70
2019-06-01T04:54:21.437Z,2.50
2019-06-01T04:59:22.848Z,1.90
2019-06-01T05:04:24.177Z,1.90
2019-06-01T05:09:25.508Z,1.57
2019-06-01T05:14:26.940Z,2.00
2019-06-01T05:19:28.269Z,1.80
2019-06-01T05:24:29.616Z,1.63
2019-06-01T05:29:30.975Z,1.40
2019-06-01T05:34:32.301Z,1.50
2019-06-01T05:39:33.631Z,3.50
2019-06-01T05:44:34.954Z,2.30
2019-06-01T05:49:37.015Z,1.87
2019-06-01T05:54:38.345Z,1.77
2019-06-01T05:59:39.697Z,1.97
2019-06-01T06:04:41.053Z,1.10
2019-06-01T06:09:42.458Z,1.67
2019-06-01T06:14:43.840Z,1.23
2019-06-01T06:19:45.184Z,1.90
2019-06-01T06:24:46.501Z,1.03
2019-06-01T06:29:47.810Z,0.80
2019-06-01T06:34:49.237Z,1.10
2019-06-01T06:39:50.594Z,0.77
2019-06-01T06:44:51.897Z,1.07
2019-06-01T06:49:53.224Z,1.00
2019-06-01T06:54:54.574Z,1.90
2019-06-01T06:59:55.871Z,1.20
2019-06-01T07:04:57.231Z,2.40
2019-06-01T07:09:58.549Z,1.13
2019-06-01T07:14:59.874Z,1.00
2019-06-01T07:20:01.381Z,2.07
2019-06-01T07:25:04.241Z,2.23
2019-06-01T07:30:05.585Z,2.17
2019-06-01T07:35:06.945Z,1.63
2019-06-01T07:40:13.150Z,1.87
2019-06-01T07:45:09.773Z,1.07
2019-06-01T07:50:11.228Z,2.00
2019-06-01T07:55:12.556Z,2.30
2019-06-01T08:00:13.919Z,0.90
2019-06-01T08:05:15.269Z,1.13
2019-06-01T08:10:16.734Z,2.17
2019-06-01T08:15:18.084Z,0.93
2019-06-01T08:20:19.418Z,1.07
2019-06-01T08:25:22.179Z,1.37
2019-06-01T08:30:23.001Z,1.20
2019-06-01T08:35:24.892Z,1.40
2019-06-01T08:40:25.773Z,1.00
2019-06-01T08:45:27.679Z,1.73
2019-06-01T08:50:29.795Z,2.57
2019-06-01T08:55:30.201Z,2.67
2019-06-01T09:00:32.530Z,1.20
2019-06-01T09:05:33.148Z,1.80
2019-06-01T09:10:35.420Z,1.63
2019-06-01T09:15:35.681Z,1.70
2019-06-01T09:20:38.835Z,1.63
2019-06-01T09:25:38.218Z,1.10
2019-06-01T09:30:39.631Z,1.07
2019-06-01T09:35:53.933Z,1.33
2019-06-01T09:40:42.437Z,1.33
2019-06-01T09:45:43.765Z,1.23
2019-06-01T09:50:45.170Z,1.63
2019-06-01T09:55:46.471Z,1.40
2019-06-01T10:00:48.674Z,1.93
2019-06-01T10:06:01.333Z,1.30
2019-06-01T10:10:52.279Z,1.83
2019-06-01T10:15:53.751Z,1.30
2019-06-01T10:20:55.193Z,1.13
2019-06-01T10:25:56.528Z,2.30
2019-06-01T10:30:57.904Z,0.90
2019-06-01T10:35:59.232Z,0.77
2019-06-01T10:41:00.589Z,1.50
2019-06-01T10:46:01.984Z,1.17
2019-06-01T10:51:03.393Z,2.17
2019-06-01T10:56:04.814Z,1.80
2019-06-01T11:01:06.277Z,1.30
2019-06-01T11:06:07.654Z,0.90
2019-06-01T11:11:09.019Z,2.20
2019-06-01T11:16:10.341Z,1.03
2019-06-01T11:21:11.722Z,2.43
2019-06-01T11:26:13.800Z,0.90
2019-06-01T11:31:15.167Z,1.40
2019-06-01T11:36:16.550Z,1.27
2019-06-01T11:41:18.824Z,2.00
2019-06-01T11:46:19.389Z,1.00
2019-06-01T11:51:20.725Z,2.10
2019-06-01T11:56:22.034Z,0.83
2019-06-01T12:01:23.398Z,1.00
2019-06-01T12:06:24.801Z,0.90
2019-06-01T12:11:26.121Z,1.10
2019-06-01T12:16:27.436Z,1.53
2019-06-01T12:21:28.801Z,0.80
2019-06-01T12:26:30.111Z,1.10
2019-06-01T12:31:31.423Z,1.07
2019-06-01T12:36:32.754Z,0.90
2019-06-01T12:41:34.078Z,1.37
2019-06-01T12:46:36.992Z,1.33
2019-06-01T12:51:40.411Z,1.00
2019-06-01T12:56:40.817Z,0.87
2019-06-01T13:01:42.978Z,0.97
2019-06-01T13:06:45.037Z,1.47
2019-06-01T13:11:45.319Z,1.03
2019-06-01T13:16:56.980Z,1.77
2019-06-01T13:21:49.986Z,1.10
2019-06-01T13:26:50.109Z,1.93
2019-06-01T13:31:50.883Z,1.07
2019-06-01T13:36:53.044Z,1.50
2019-06-01T13:41:53.645Z,1.10
2019-06-01T13:46:55.018Z,0.82
2019-06-01T13:51:56.357Z,0.80
2019-06-01T13:56:57.681Z,1.45
2019-06-01T14:01:59.046Z,1.87
2019-06-01T14:07:00.434Z,1.10
2019-06-01T14:12:01.773Z,2.00
2019-06-01T14:17:03.141Z,1.05
2019-06-01T14:22:04.471Z,2.58
2019-06-01T14:27:05.760Z,1.17
2019-06-01T14:32:07.077Z,1.23
2019-06-01T14:37:09.145Z,1.30
2019-06-01T14:42:10.487Z,1.95
2019-06-01T14:47:11.909Z,1.27
2019-06-01T14:52:13.340Z,1.20
2019-06-01T14:57:14.732Z,2.35
2019-06-01T15:02:16.063Z,2.00
2019-06-01T15:07:17.452Z,1.85
2019-06-01T15:12:18.837Z,1.15
2019-06-01T15:17:20.169Z,2.72
2019-06-01T15:22:21.466Z,1.40
2019-06-01T15:27:22.812Z,2.45
2019-06-01T15:32:26.771Z,2.67
2019-06-01T15:37:26.233Z,1.08
2019-06-01T15:42:27.568Z,1.80
2019-06-01T15:47:28.940Z,1.48
2019-06-01T15:52:30.321Z,1.20
2019-06-01T15:57:31.629Z,1.40
2019-06-01T16:02:32.953Z,1.70
2019-06-01T16:07:34.261Z,1.58
2019-06-01T16:12:36.490Z,1.20
2019-06-01T16:17:38.728Z,1.40
2019-06-01T16:22:40.108Z,1.20
2019-06-01T16:27:41.554Z,1.33
2019-06-01T16:32:43.602Z,1.60
2019-06-01T16:37:45.018Z,1.58
2019-06-01T16:42:46.425Z,1.40
2019-06-01T16:47:47.773Z,1.45
2019-06-01T16:52:49.163Z,1.65
2019-06-01T16:57:50.591Z,1.52
2019-06-01T17:02:51.924Z,1.20
2019-06-01T17:07:54.050Z,1.95
2019-06-01T17:12:56.736Z,1.42
2019-06-01T17:17:57.281Z,1.50
2019-06-01T17:22:59.452Z,1.23
2019-06-01T17:28:00.276Z,1.33
2019-06-01T17:33:02.326Z,1.55
2019-06-01T17:38:03.006Z,1.35
2019-06-01T17:43:04.682Z,1.30
2019-06-01T17:48:20.487Z,2.03
2019-06-01T17:53:07.079Z,1.50
2019-06-01T17:58:09.792Z,1.40
2019-06-01T18:03:10.162Z,1.10
2019-06-01T18:08:12.385Z,1.25
2019-06-01T18:13:13.050Z,1.10
2019-06-01T18:18:14.044Z,2.28
2019-06-01T18:23:15.239Z,1.42
2019-06-01T18:28:19.717Z,1.50
2019-06-01T18:33:18.054Z,1.50
2019-06-01T18:38:19.413Z,1.52
2019-06-01T18:43:21.476Z,2.22
2019-06-01T18:48:23.530Z,1.50
2019-06-01T18:53:24.893Z,1.70
2019-06-01T18:58:26.283Z,1.50
2019-06-01T19:03:27.601Z,2.08
2019-06-01T19:08:29.212Z,2.00
2019-06-01T19:13:30.557Z,2.10
2019-06-01T19:18:31.975Z,2.15
2019-06-01T19:23:33.310Z,2.70
2019-06-01T19:28:34.713Z,2.50
2019-06-01T19:33:36.169Z,2.45
2019-06-01T19:38:37.609Z,4.22
2019-06-01T19:43:38.978Z,2.20
2019-06-01T19:48:40.321Z,2.50
2019-06-01T19:53:41.729Z,2.22
2019-06-01T19:58:43.081Z,3.53
2019-06-01T20:03:44.414Z,2.10
2019-06-01T20:08:45.752Z,3.50
2019-06-01T20:13:47.058Z,4.63
2019-06-01T20:18:48.400Z,4.80
2019-06-01T20:23:49.758Z,6.27
2019-06-01T20:28:51.142Z,5.03
2019-06-01T20:33:56.073Z,4.83
2019-06-01T20:38:53.849Z,5.73
2019-06-01T20:43:55.161Z,4.30
2019-06-01T20:48:56.585Z,3.83
2019-06-01T20:53:58.037Z,4.87
2019-06-01T20:58:59.338Z,7.10
2019-06-01T21:04:00.651Z,6.57
2019-06-01T21:09:01.979Z,5.87
2019-06-01T21:14:03.590Z,5.93
2019-06-01T21:19:04.920Z,6.33
2019-06-01T21:24:06.333Z,8.33
2019-06-01T21:29:07.716Z,7.43
2019-06-01T21:34:12.102Z,5.30
2019-06-01T21:39:15.476Z,6.53
2019-06-01T21:44:22.072Z,7.10
2019-06-01T21:49:28.132Z,7.00
2019-06-01T21:54:29.476Z,6.00
2019-06-01T21:59:30.837Z,7.70
2019-06-01T22:04:32.285Z,8.27
2019-06-01T22:09:33.653Z,6.17
2019-06-01T22:14:35.047Z,7.27
2019-06-01T22:19:36.380Z,6.73
2019-06-01T22:24:37.784Z,7.57
2019-06-01T22:29:39.257Z,7.20
2019-06-01T22:34:40.627Z,6.60
2019-06-01T22:39:42.294Z,5.57
2019-06-01T22:44:43.677Z,4.80
2019-06-01T22:49:45.028Z,8.67
2019-06-01T22:54:46.369Z,5.97
2019-06-01T22:59:47.662Z,5.80
2019-06-01T23:04:53.471Z,5.30
2019-06-01T23:09:54.798Z,5.10
2019-06-01T23:14:56.128Z,6.37
2019-06-01T23:19:57.441Z,5.73
2019-06-01T23:24:58.775Z,5.63
2019-06-01T23:30:00.098Z,5.27
2019-06-01T23:35:01.438Z,5.60
2019-06-01T23:40:04.095Z,5.23
2019-06-01T23:45:06.241Z,5.27
2019-06-01T23:50:07.572Z,5.30
2019-06-01T23:55:09.697Z,5.27
